CheckWX is a tool to help pilots better visualize weather data.  It is not intended as a substitute for an official pre-flight weather briefing.

16:31:40 UTC

KLNL METAR
Kings Land O' Lakes Airport
Land O' Lakes, Wisconsin, USA
Current

17 mins ago

KLNL 201615Z AUTO 21003KT 10SM CLR 12/05 A2990 RMK AO2 T01150051
Observed
Oct-20 @ 16:15 UTC
Wind
  • 210° at 3 KTS
Visibility
10 SM
Flight Rules
VFR
Cloud Levels
  • Clear skies
Temperature
12°C / 54°F
Dewpoint
C / 41°F
Humidity
63%
Altimeter
29.9" Hg
Pressure
1012.52 hPa
Previous

37 mins ago

KLNL 201555Z AUTO 21003KT 10SM CLR 11/06 A2990 RMK AO2 T01080055
Observed
Oct-20 @ 15:55 UTC
Wind
  • 210° at 3 KTS
Visibility
10 SM
Flight Rules
VFR
Cloud Levels
  • Clear skies
Temperature
11°C / 52°F
Dewpoint
C / 43°F
Humidity
72%
Altimeter
29.9" Hg
Pressure
1012.52 hPa
Previous

57 mins ago

KLNL 201535Z AUTO 22003KT 10SM SCT003 09/08 A2990 RMK AO2 T00890079
Observed
Oct-20 @ 15:35 UTC
Wind
  • 220° at 3 KTS
Visibility
10 SM
Flight Rules
VFR
Cloud Levels
  • Scattered at 300' AGL
Temperature
C / 48°F
Dewpoint
C / 46°F
Humidity
94%
Altimeter
29.9" Hg
Pressure
1012.52 hPa